Time;durP1;ratioP1;P1;durP2;ratioP2;P2;SDS_P1;SDS_P2;PMS_P1;PMS_P2;Temp;Humidity;BMP_temperature;BMP_pressure;BME280_temperature;BME280_humidity;BME280_pressure;Samples;Min_cycle;Max_cycle;Signal;HPM_P1;HPM_P2
2022/08/01 00:02:16;;;;;;;5.20;2.80;;;18.50;99.90;;;;;;5051497;28;20052;-71
2022/08/01 00:04:41;;;;;;;4.45;2.63;;;18.50;99.90;;;;;;5064068;28;20473;-71
2022/08/01 00:07:08;;;;;;;5.05;3.08;;;18.40;99.90;;;;;;5055655;28;20037;-72
2022/08/01 00:09:34;;;;;;;6.10;3.08;;;18.50;99.90;;;;;;5045924;28;20490;-72
2022/08/01 00:11:59;;;;;;;5.18;2.88;;;18.50;99.90;;;;;;5054757;28;20143;-71
2022/08/01 00:14:25;;;;;;;4.60;2.40;;;18.40;99.90;;;;;;5062982;28;20037;-72
2022/08/01 00:16:51;;;;;;;4.25;2.20;;;18.50;99.90;;;;;;5053639;28;20405;-71
2022/08/01 00:19:19;;;;;;;4.88;2.17;;;18.50;99.90;;;;;;5059195;28;20067;-71
2022/08/01 00:21:45;;;;;;;3.67;2.30;;;18.40;99.90;;;;;;5062113;28;20044;-71
2022/08/01 00:24:10;;;;;;;5.18;2.70;;;18.40;99.90;;;;;;5046764;28;20488;-71
2022/08/01 00:26:36;;;;;;;3.88;2.22;;;18.40;99.90;;;;;;5053501;28;20339;-72
2022/08/01 00:29:02;;;;;;;4.15;2.38;;;18.40;99.90;;;;;;5041536;28;20045;-71
2022/08/01 00:31:28;;;;;;;5.80;2.20;;;18.40;99.90;;;;;;5060176;28;20052;-71
2022/08/01 00:33:54;;;;;;;2.65;1.73;;;18.40;99.90;;;;;;5054781;28;20036;-71
2022/08/01 00:36:19;;;;;;;3.15;1.90;;;18.40;99.90;;;;;;5049224;28;20071;-71
2022/08/01 00:38:45;;;;;;;3.33;1.50;;;18.40;99.90;;;;;;5054184;28;20246;-71
2022/08/01 00:41:11;;;;;;;3.45;1.42;;;18.40;99.90;;;;;;5061031;28;20078;-71
2022/08/01 00:43:36;;;;;;;2.42;1.38;;;18.40;99.90;;;;;;5058037;28;20085;-71
2022/08/01 00:46:02;;;;;;;2.55;1.30;;;18.40;99.90;;;;;;5054397;28;20378;-72
2022/08/01 00:48:28;;;;;;;2.20;1.20;;;18.30;99.90;;;;;;5056288;28;20135;-72
2022/08/01 00:50:54;;;;;;;4.63;1.90;;;18.30;99.90;;;;;;5052947;28;20252;-71
2022/08/01 00:53:19;;;;;;;2.40;1.55;;;18.30;99.90;;;;;;5055282;28;20036;-72
2022/08/01 00:55:46;;;;;;;2.70;1.40;;;18.30;99.90;;;;;;5059702;28;20036;-71
2022/08/01 00:58:12;;;;;;;2.58;1.52;;;18.40;99.90;;;;;;5064626;28;20041;-72
2022/08/01 01:00:37;;;;;;;5.13;1.90;;;18.30;99.90;;;;;;5054573;28;20086;-72
2022/08/01 01:03:03;;;;;;;3.60;1.60;;;18.30;99.90;;;;;;5056143;28;20090;-72
2022/08/01 01:05:32;;;;;;;3.47;1.63;;;18.30;99.90;;;;;;5049096;28;20044;-72
2022/08/01 01:08:06;;;;;;;5.05;1.90;;;18.30;99.90;;;;;;5061978;28;20401;-71
2022/08/01 01:10:37;;;;;;;4.68;1.50;;;18.20;99.90;;;;;;5055787;28;20397;-72
2022/08/01 01:13:17;;;;;;;3.20;1.58;;;18.20;99.90;;;;;;5060264;28;20036;-72
2022/08/01 01:15:58;;;;;;;2.75;1.42;;;18.20;99.90;;;;;;5054596;28;20120;-71
2022/08/01 01:18:30;;;;;;;3.67;1.45;;;18.20;99.90;;;;;;5059336;28;20106;-72
2022/08/01 01:21:17;;;;;;;6.43;1.70;;;18.20;99.90;;;;;;5059650;28;20071;-72
2022/08/01 01:24:01;;;;;;;3.13;1.45;;;18.10;99.90;;;;;;5057092;28;20469;-71
2022/08/01 01:26:58;;;;;;;2.63;1.33;;;18.10;99.90;;;;;;5064018;28;20155;-72
2022/08/01 01:29:30;;;;;;;2.47;0.98;;;18.10;99.90;;;;;;5058700;28;20048;-72
2022/08/01 01:32:13;;;;;;;2.03;0.90;;;18.10;99.90;;;;;;5058864;28;20044;-72
2022/08/01 01:34:43;;;;;;;2.60;1.05;;;18.10;99.90;;;;;;5062073;28;20048;-72
2022/08/01 01:37:14;;;;;;;1.45;0.98;;;18.10;99.90;;;;;;5063620;28;20040;-72
2022/08/01 01:39:42;;;;;;;2.60;0.80;;;18.10;99.90;;;;;;5057473;28;20044;-72
2022/08/01 01:42:08;;;;;;;1.95;0.95;;;18.10;99.90;;;;;;5062269;28;20056;-72
2022/08/01 01:44:36;;;;;;;3.50;1.08;;;18.10;99.90;;;;;;5062257;28;20507;-72
2022/08/01 01:47:04;;;;;;;2.55;1.25;;;18.00;99.90;;;;;;5056726;28;20040;-72
2022/08/01 01:49:30;;;;;;;1.65;0.68;;;18.00;99.90;;;;;;5058960;28;20182;-72
2022/08/01 01:51:57;;;;;;;2.10;0.90;;;18.00;99.90;;;;;;5063973;28;20056;-68
2022/08/01 01:54:25;;;;;;;1.98;0.82;;;18.00;99.90;;;;;;5069687;28;20404;-68
2022/08/01 01:56:52;;;;;;;2.38;0.77;;;17.90;99.90;;;;;;5059871;28;20136;-69
2022/08/01 01:59:24;;;;;;;2.72;0.65;;;17.90;99.90;;;;;;5064418;28;20087;-69
2022/08/01 02:01:51;;;;;;;1.63;0.68;;;17.90;99.90;;;;;;5058883;28;20378;-68
2022/08/01 02:04:19;;;;;;;2.45;0.77;;;17.90;99.90;;;;;;5059604;28;20478;-69
2022/08/01 02:06:46;;;;;;;1.48;0.55;;;17.90;99.90;;;;;;5068306;28;20115;-69
2022/08/01 02:09:15;;;;;;;1.20;0.65;;;17.90;99.90;;;;;;5062549;28;20112;-69
2022/08/01 02:11:42;;;;;;;1.30;0.68;;;17.80;99.90;;;;;;5062294;28;20048;-69
2022/08/01 02:14:10;;;;;;;2.60;0.75;;;17.80;99.90;;;;;;5063856;28;20091;-69
2022/08/01 02:16:39;;;;;;;2.63;0.88;;;17.80;99.90;;;;;;5055353;28;20101;-69
2022/08/01 02:19:05;;;;;;;2.30;0.70;;;17.80;99.90;;;;;;5060719;28;20059;-69
2022/08/01 02:21:54;;;;;;;2.50;1.05;;;17.80;99.90;;;;;;5059009;28;20383;-69
2022/08/01 02:24:43;;;;;;;1.90;0.80;;;17.80;99.90;;;;;;5076046;22;20045;-68
2022/08/01 02:27:12;;;;;;;1.83;1.15;;;17.70;99.90;;;;;;5026704;28;20063;-68
2022/08/01 02:29:52;;;;;;;1.55;0.90;;;17.70;99.90;;;;;;5022960;28;20044;-68
2022/08/01 02:32:26;;;;;;;4.53;0.75;;;17.80;99.90;;;;;;5025503;28;20083;-68
2022/08/01 02:34:55;;;;;;;3.60;0.90;;;17.70;99.90;;;;;;5004969;28;20208;-68
2022/08/01 02:37:23;;;;;;;2.90;0.90;;;17.70;99.90;;;;;;5009241;28;20103;-68
2022/08/01 02:39:52;;;;;;;5.72;0.85;;;17.70;99.90;;;;;;5024066;28;20099;-68
2022/08/01 02:42:18;;;;;;;2.88;1.10;;;17.70;99.90;;;;;;5022135;28;20091;-68
2022/08/01 02:44:47;;;;;;;3.83;0.95;;;17.70;99.90;;;;;;5021640;28;20068;-68
2022/08/01 02:47:15;;;;;;;4.40;1.40;;;17.70;99.90;;;;;;5005425;28;20466;-68
2022/08/01 02:49:44;;;;;;;2.63;1.00;;;17.60;99.90;;;;;;5004280;28;20058;-68
2022/08/01 02:52:13;;;;;;;2.30;1.05;;;17.60;99.90;;;;;;5025319;28;20052;-68
2022/08/01 02:54:41;;;;;;;4.75;1.10;;;17.60;99.90;;;;;;5024634;28;20044;-68
2022/08/01 02:57:08;;;;;;;4.07;1.05;;;17.60;99.90;;;;;;5024406;28;20041;-67
2022/08/01 02:59:37;;;;;;;5.40;0.95;;;17.60;99.90;;;;;;5025903;28;20057;-68
2022/08/01 03:02:05;;;;;;;2.88;1.10;;;17.60;99.90;;;;;;5004710;28;20386;-68
2022/08/01 03:04:33;;;;;;;3.92;1.20;;;17.60;99.90;;;;;;5022760;28;20112;-68
2022/08/01 03:07:03;;;;;;;2.40;1.20;;;17.60;99.90;;;;;;5025574;28;20048;-68
2022/08/01 03:09:31;;;;;;;4.80;1.95;;;17.60;99.90;;;;;;5024222;28;20052;-68
2022/08/01 03:12:01;;;;;;;4.15;1.00;;;17.50;99.90;;;;;;5008124;28;20041;-68
2022/08/01 03:14:29;;;;;;;4.28;1.50;;;17.60;99.90;;;;;;5013654;28;20045;-68
2022/08/01 03:16:57;;;;;;;5.05;1.73;;;17.50;99.90;;;;;;5022883;28;20048;-68
2022/08/01 03:19:24;;;;;;;2.83;1.20;;;17.50;99.90;;;;;;4995697;28;20057;-68
2022/08/01 03:21:51;;;;;;;4.57;1.27;;;17.50;99.90;;;;;;5023058;28;20045;-68
2022/08/01 03:24:18;;;;;;;4.00;1.40;;;17.50;99.90;;;;;;5016373;28;20033;-68
2022/08/01 03:26:45;;;;;;;5.97;1.48;;;17.50;99.90;;;;;;5000049;28;20111;-68
2022/08/01 03:29:19;;;;;;;4.72;1.50;;;17.50;99.90;;;;;;5012963;28;20045;-68
2022/08/01 03:31:47;;;;;;;3.75;1.48;;;17.50;99.90;;;;;;5022165;28;20514;-68
2022/08/01 03:34:13;;;;;;;4.82;1.92;;;17.50;99.90;;;;;;5006664;28;20045;-68
2022/08/01 03:37:01;;;;;;;2.72;1.35;;;17.50;99.90;;;;;;5024519;28;20055;-67
2022/08/01 03:39:33;;;;;;;6.95;1.50;;;17.40;99.90;;;;;;5001075;28;20299;-70
2022/08/01 03:42:07;;;;;;;5.03;1.52;;;17.40;99.90;;;;;;5022534;28;20061;-70
2022/08/01 03:44:35;;;;;;;7.47;1.35;;;17.40;99.90;;;;;;5004069;28;20037;-70
2022/08/01 03:47:06;;;;;;;8.25;2.10;;;17.40;99.90;;;;;;5004944;28;20045;-71
2022/08/01 03:49:34;;;;;;;4.20;1.50;;;17.40;99.90;;;;;;5005559;28;20549;-70
2022/08/01 03:52:06;;;;;;;4.90;1.60;;;17.40;99.90;;;;;;5019913;28;20106;-70
2022/08/01 03:54:37;;;;;;;4.30;1.63;;;17.40;99.90;;;;;;4999683;28;20045;-70
2022/08/01 03:57:05;;;;;;;6.65;1.58;;;17.30;99.90;;;;;;5022856;28;20044;-70
2022/08/01 03:59:31;;;;;;;8.52;1.25;;;17.30;99.90;;;;;;5004401;28;20049;-70
2022/08/01 04:01:58;;;;;;;3.92;1.48;;;17.30;99.90;;;;;;5020115;28;20041;-71
2022/08/01 04:04:24;;;;;;;7.07;2.20;;;17.30;99.90;;;;;;4980218;28;20168;-70
2022/08/01 04:06:53;;;;;;;;;;;17.30;99.90;;;;;;5023845;28;20470;-71
2022/08/01 04:09:21;;;;;;;8.70;2.10;;;17.20;99.90;;;;;;5005564;28;19920;-71
2022/08/01 04:11:48;;;;;;;4.85;1.60;;;17.20;99.90;;;;;;5009488;28;20187;-70
2022/08/01 04:14:13;;;;;;;;;;;17.20;99.90;;;;;;5021410;28;20128;-70
2022/08/01 04:16:39;;;;;;;3.70;1.23;;;17.20;99.90;;;;;;5022743;28;20020;-71
2022/08/01 04:19:07;;;;;;;5.57;1.70;;;17.10;99.90;;;;;;5022168;28;20037;-71
2022/08/01 04:21:34;;;;;;;3.67;1.38;;;17.10;99.90;;;;;;5005171;28;20076;-70
2022/08/01 04:24:04;;;;;;;4.97;1.45;;;17.10;99.90;;;;;;5011614;28;20146;-70
2022/08/01 04:26:33;;;;;;;5.97;1.58;;;17.00;99.90;;;;;;5001671;28;20398;-70
2022/08/01 04:29:02;;;;;;;9.45;1.85;;;17.00;99.90;;;;;;5000662;28;20044;-70
2022/08/01 04:31:30;;;;;;;8.70;2.15;;;17.00;99.90;;;;;;5003897;28;20045;-71
2022/08/01 04:33:57;;;;;;;6.43;1.52;;;17.00;99.90;;;;;;5000539;28;20045;-71
2022/08/01 04:36:25;;;;;;;6.72;2.55;;;16.90;99.90;;;;;;5015088;28;20052;-71
2022/08/01 04:38:57;;;;;;;5.95;1.83;;;16.90;99.90;;;;;;5022455;28;20124;-70
2022/08/01 04:41:24;;;;;;;5.65;1.98;;;16.90;99.90;;;;;;5010897;28;20048;-70
2022/08/01 04:43:51;;;;;;;5.35;1.70;;;16.90;99.90;;;;;;5005010;28;20041;-70
2022/08/01 04:46:18;;;;;;;6.45;1.83;;;16.80;99.90;;;;;;5020114;28;20513;-70
2022/08/01 04:48:45;;;;;;;5.20;1.42;;;16.90;99.90;;;;;;5024028;28;20306;-71
2022/08/01 04:51:15;;;;;;;6.03;1.27;;;16.80;99.90;;;;;;5005798;28;20148;-70
2022/08/01 04:53:41;;;;;;;9.52;1.40;;;16.80;99.90;;;;;;5008806;28;20077;-70
2022/08/01 04:56:07;;;;;;;6.70;2.33;;;16.80;99.90;;;;;;5031311;28;20041;-70
2022/08/01 04:58:33;;;;;;;7.93;1.75;;;16.80;99.90;;;;;;5013401;28;20098;-70
2022/08/01 05:00:58;;;;;;;4.15;1.63;;;16.80;99.90;;;;;;5028546;28;20536;-70
2022/08/01 05:03:26;;;;;;;5.55;1.35;;;16.80;99.90;;;;;;5026504;28;20037;-70
2022/08/01 05:05:52;;;;;;;6.85;1.23;;;16.80;99.90;;;;;;5027735;28;20216;-71
2022/08/01 05:08:18;;;;;;;4.55;1.48;;;16.80;99.90;;;;;;5022466;28;20041;-70
2022/08/01 05:10:43;;;;;;;;;;;16.80;99.90;;;;;;5009520;28;20131;-70
2022/08/01 05:13:09;;;;;;;8.23;1.98;;;16.70;99.90;;;;;;5022063;28;20016;-70
2022/08/01 05:15:38;;;;;;;10.38;1.63;;;16.70;99.90;;;;;;5024761;28;20073;-70
2022/08/01 05:18:04;;;;;;;5.22;1.30;;;16.80;99.90;;;;;;5023593;28;20394;-71
2022/08/01 05:20:29;;;;;;;8.77;1.60;;;16.70;99.90;;;;;;5024960;28;20041;-70
2022/08/01 05:22:55;;;;;;;8.48;1.88;;;16.70;99.90;;;;;;5023770;28;20094;-70
2022/08/01 05:25:21;;;;;;;5.47;1.02;;;16.70;99.90;;;;;;5026799;28;20402;-70
2022/08/01 05:27:47;;;;;;;8.45;1.48;;;16.70;99.90;;;;;;5009467;28;20064;-70
2022/08/01 05:30:13;;;;;;;10.80;2.17;;;16.70;99.90;;;;;;5025937;28;20440;-70
2022/08/01 05:32:38;;;;;;;6.20;1.50;;;16.70;99.90;;;;;;5007582;28;20183;-70
2022/08/01 05:35:05;;;;;;;14.15;1.73;;;16.70;99.90;;;;;;4991093;28;20246;-70
2022/08/01 05:37:30;;;;;;;5.60;1.58;;;16.70;99.90;;;;;;5023170;28;20038;-70
2022/08/01 05:39:56;;;;;;;4.72;1.88;;;16.70;99.90;;;;;;5011098;28;20551;-70
2022/08/01 05:42:22;;;;;;;4.05;1.80;;;16.70;99.90;;;;;;5023553;28;20041;-70
2022/08/01 05:44:48;;;;;;;2.67;1.27;;;16.70;99.90;;;;;;5026184;28;20129;-70
2022/08/01 05:47:14;;;;;;;10.48;2.47;;;16.70;99.90;;;;;;5024860;28;20179;-71
2022/08/01 05:49:39;;;;;;;10.88;1.95;;;16.70;99.90;;;;;;5022928;28;20541;-70
2022/08/01 05:52:05;;;;;;;4.20;1.15;;;16.70;99.90;;;;;;5021826;28;20482;-71
2022/08/01 05:54:31;;;;;;;5.45;1.48;;;16.70;99.90;;;;;;5020457;28;20124;-71
2022/08/01 05:56:59;;;;;;;6.68;1.63;;;16.70;99.90;;;;;;5009677;28;20148;-71
2022/08/01 05:59:25;;;;;;;4.68;1.55;;;16.70;99.90;;;;;;5024877;28;20300;-71
2022/08/01 06:01:51;;;;;;;;;;;16.70;99.90;;;;;;5026859;28;20033;-73
2022/08/01 06:04:17;;;;;;;9.93;1.60;;;16.70;99.90;;;;;;5008252;28;19923;-73
2022/08/01 06:06:43;;;;;;;9.27;1.67;;;16.70;99.90;;;;;;5013096;28;20539;-73
2022/08/01 06:09:08;;;;;;;12.13;2.33;;;16.70;99.90;;;;;;5004816;28;20126;-73
2022/08/01 06:11:34;;;;;;;7.97;1.48;;;16.70;99.90;;;;;;5017666;28;20511;-69
2022/08/01 06:14:00;;;;;;;8.77;2.95;;;16.70;99.90;;;;;;5026516;28;20051;-72
2022/08/01 06:16:25;;;;;;;12.27;1.70;;;16.80;99.90;;;;;;5024402;28;20448;-72
2022/08/01 06:18:51;;;;;;;10.10;2.17;;;16.80;99.90;;;;;;5027275;28;20034;-72
2022/08/01 06:21:17;;;;;;;11.60;1.80;;;16.80;99.90;;;;;;5027770;28;20037;-73
2022/08/01 06:23:43;;;;;;;8.18;2.17;;;16.80;99.90;;;;;;5005782;28;20499;-71
2022/08/01 06:26:09;;;;;;;14.40;1.55;;;16.90;99.90;;;;;;5004931;28;20041;-71
2022/08/01 06:28:35;;;;;;;14.10;2.53;;;16.90;99.90;;;;;;5024952;28;21608;-70
2022/08/01 06:31:01;;;;;;;5.90;1.75;;;16.90;99.90;;;;;;5008755;28;20114;-70
2022/08/01 06:33:27;;;;;;;4.85;1.48;;;16.90;99.90;;;;;;4999127;28;20144;-71
2022/08/01 06:35:53;;;;;;;9.50;1.73;;;17.00;99.90;;;;;;5019792;28;20458;-71
2022/08/01 06:38:18;;;;;;;9.63;1.75;;;17.00;99.90;;;;;;4998033;28;20061;-71
2022/08/01 06:40:44;;;;;;;4.40;2.08;;;17.10;99.90;;;;;;5008281;28;20131;-71
2022/08/01 06:43:11;;;;;;;5.95;1.60;;;17.10;99.90;;;;;;5007325;28;20034;-71
2022/08/01 06:45:40;;;;;;;6.75;1.70;;;17.20;99.90;;;;;;5003687;28;20049;-71
2022/08/01 06:48:06;;;;;;;6.63;1.50;;;17.20;99.90;;;;;;5017360;28;20635;-71
2022/08/01 06:50:32;;;;;;;8.68;1.77;;;17.20;99.90;;;;;;5002103;28;20045;-71
2022/08/01 06:52:58;;;;;;;5.43;2.13;;;17.40;99.90;;;;;;5003970;28;20077;-70
2022/08/01 06:55:24;;;;;;;8.57;1.45;;;17.40;99.90;;;;;;5023445;28;20065;-71
2022/08/01 06:57:52;;;;;;;5.00;1.48;;;17.40;99.90;;;;;;5010404;28;20072;-70
2022/08/01 07:00:22;;;;;;;3.95;1.50;;;17.40;99.90;;;;;;5021868;28;20044;-71
2022/08/01 07:02:56;;;;;;;5.30;1.42;;;17.40;99.90;;;;;;4995864;28;20083;-71
2022/08/01 07:05:22;;;;;;;7.13;1.40;;;17.40;99.90;;;;;;5004551;28;20060;-71
2022/08/01 07:07:48;;;;;;;;;;;17.40;99.90;;;;;;5025673;28;20209;-71
2022/08/01 07:10:14;;;;;;;6.03;1.40;;;17.40;99.90;;;;;;5004027;28;20444;-71
2022/08/01 07:12:40;;;;;;;7.32;1.25;;;17.40;99.90;;;;;;5011037;28;20041;-71
2022/08/01 07:15:08;;;;;;;5.30;1.33;;;17.30;99.90;;;;;;5024113;28;20159;-71
2022/08/01 07:17:38;;;;;;;8.05;1.55;;;17.30;99.90;;;;;;5023478;28;20509;-71
2022/08/01 07:20:04;;;;;;;5.75;1.60;;;17.20;99.90;;;;;;5007648;28;20122;-71
2022/08/01 07:22:30;;;;;;;8.07;2.75;;;17.20;99.90;;;;;;5023793;28;20068;-71
2022/08/01 07:24:55;;;;;;;10.77;1.52;;;17.20;99.90;;;;;;5025078;28;20444;-71
2022/08/01 07:27:21;;;;;;;7.38;1.40;;;17.20;99.90;;;;;;5008452;28;20564;-71
2022/08/01 07:29:46;;;;;;;5.68;1.48;;;17.30;99.90;;;;;;5001562;28;20418;-71
2022/08/01 07:32:12;;;;;;;6.65;1.25;;;17.30;99.90;;;;;;5024228;28;20029;-71
2022/08/01 07:34:38;;;;;;;3.63;1.67;;;17.40;99.90;;;;;;5025110;28;20087;-71
2022/08/01 07:37:03;;;;;;;7.38;1.38;;;17.40;99.90;;;;;;5026731;28;20041;-71
2022/08/01 07:39:29;;;;;;;6.03;1.13;;;17.50;99.90;;;;;;5024587;28;20593;-71
2022/08/01 07:41:55;;;;;;;5.82;1.35;;;17.50;99.90;;;;;;5025014;28;20067;-71
2022/08/01 07:44:21;;;;;;;6.57;0.82;;;17.50;99.90;;;;;;5007019;28;20052;-71
2022/08/01 07:46:46;;;;;;;7.28;1.75;;;17.50;99.90;;;;;;5006544;28;20045;-71
2022/08/01 07:49:12;;;;;;;4.13;0.90;;;17.50;99.90;;;;;;5023679;28;20045;-71
2022/08/01 07:51:38;;;;;;;3.28;1.08;;;17.50;99.90;;;;;;5006206;28;20414;-71
2022/08/01 07:54:03;;;;;;;10.77;2.00;;;17.50;99.90;;;;;;5025174;28;20073;-70
2022/08/01 07:56:29;;;;;;;5.22;1.40;;;17.60;99.90;;;;;;5006259;28;20570;-71
2022/08/01 07:58:54;;;;;;;5.57;1.08;;;17.60;99.90;;;;;;5017104;28;20446;-71
2022/08/01 08:01:20;;;;;;;6.18;1.15;;;17.70;99.90;;;;;;5025012;28;20501;-71
2022/08/01 08:03:46;;;;;;;6.38;1.55;;;17.80;99.90;;;;;;5006186;28;20041;-71
2022/08/01 08:06:12;;;;;;;6.95;1.15;;;17.80;99.90;;;;;;5022208;28;20041;-71
2022/08/01 08:08:38;;;;;;;4.60;1.20;;;17.80;99.90;;;;;;5012228;28;20064;-76
2022/08/01 08:11:03;;;;;;;8.13;1.08;;;17.90;99.90;;;;;;5005969;28;20469;-75
2022/08/01 08:13:29;;;;;;;3.80;1.40;;;18.00;99.90;;;;;;5020664;28;20068;-71
2022/08/01 08:15:55;;;;;;;6.55;0.85;;;18.00;99.90;;;;;;5027125;28;20045;-71
2022/08/01 08:18:21;;;;;;;2.45;0.75;;;18.10;99.90;;;;;;5028016;28;20100;-71
2022/08/01 08:20:46;;;;;;;4.93;1.10;;;18.20;99.90;;;;;;5020249;28;20383;-71
2022/08/01 08:25:59;;;;;;;3.72;0.80;;;18.30;99.90;;;;;;5065425;22;20045;-83
2022/08/01 08:28:25;;;;;;;2.95;0.80;;;18.40;99.90;;;;;;5027600;28;20704;-83
2022/08/01 08:30:50;;;;;;;4.75;1.52;;;18.40;99.90;;;;;;5048937;28;20042;-83
2022/08/01 08:33:19;;;;;;;3.63;0.93;;;18.50;99.90;;;;;;5050867;28;20037;-84
2022/08/01 08:35:54;;;;;;;7.18;1.73;;;18.60;99.90;;;;;;5061163;28;20053;-84
2022/08/01 08:38:25;;;;;;;5.25;1.40;;;18.70;99.90;;;;;;5059177;28;20461;-86
2022/08/01 08:40:56;;;;;;;6.07;1.38;;;18.70;99.90;;;;;;5058597;28;20045;-84
2022/08/01 08:43:27;;;;;;;4.72;1.15;;;18.90;99.90;;;;;;5062142;28;20079;-85
2022/08/01 08:45:53;;;;;;;6.05;1.02;;;18.90;99.90;;;;;;5045419;28;20128;-84
2022/08/01 08:48:19;;;;;;;4.38;0.90;;;18.90;99.90;;;;;;5061470;28;20082;-84
2022/08/01 08:50:53;;;;;;;3.42;0.90;;;18.90;99.90;;;;;;5050663;28;20029;-85
2022/08/01 08:53:20;;;;;;;4.80;0.80;;;18.90;99.90;;;;;;5057113;28;20087;-84
2022/08/01 08:55:50;;;;;;;3.42;0.73;;;18.90;99.90;;;;;;5032173;28;20044;-85
2022/08/01 08:58:21;;;;;;;5.03;0.90;;;18.90;99.90;;;;;;5055362;28;20041;-85
2022/08/01 09:00:50;;;;;;;4.22;1.00;;;18.80;99.90;;;;;;5041727;28;20039;-86
2022/08/01 09:03:19;;;;;;;4.53;1.10;;;18.80;99.90;;;;;;5048360;28;20072;-84
2022/08/01 09:05:50;;;;;;;3.65;0.98;;;18.70;99.90;;;;;;5060922;28;20037;-83
2022/08/01 09:08:19;;;;;;;3.45;0.77;;;18.70;99.90;;;;;;5053038;28;20040;-86
2022/08/01 09:10:47;;;;;;;7.65;1.38;;;18.80;99.90;;;;;;5042304;28;20109;-83
2022/08/01 09:13:22;;;;;;;2.53;0.93;;;18.80;99.90;;;;;;5061101;28;20136;-83
2022/08/01 09:15:53;;;;;;;4.50;0.98;;;18.80;99.90;;;;;;5044226;28;20049;-85
2022/08/01 09:18:31;;;;;;;4.82;0.90;;;18.80;99.90;;;;;;5057190;28;20102;-84
2022/08/01 09:21:21;;;;;;;3.30;0.88;;;19.00;99.90;;;;;;5059789;28;20040;-84
2022/08/01 09:23:58;;;;;;;5.22;1.25;;;19.10;99.90;;;;;;5053669;28;20045;-83
2022/08/01 09:26:34;;;;;;;7.60;1.05;;;19.10;99.90;;;;;;5058414;28;20059;-85
2022/08/01 09:29:03;;;;;;;2.83;1.23;;;19.10;99.90;;;;;;5054594;28;20049;-84
2022/08/01 09:31:38;;;;;;;4.88;1.00;;;19.00;99.90;;;;;;5052492;28;20106;-82
2022/08/01 09:34:04;;;;;;;3.03;0.70;;;19.10;99.90;;;;;;5034044;28;20483;-83
2022/08/01 09:36:58;;;;;;;4.10;0.80;;;19.10;99.90;;;;;;5034694;28;20052;-83
2022/08/01 09:39:28;;;;;;;4.18;0.80;;;19.10;99.90;;;;;;5038969;28;20044;-83
2022/08/01 09:41:56;;;;;;;5.15;0.90;;;19.10;99.90;;;;;;5040293;28;20037;-84
2022/08/01 09:44:37;;;;;;;6.68;2.75;;;19.20;99.90;;;;;;5054733;28;20076;-83
2022/08/01 09:47:06;;;;;;;4.38;1.23;;;19.20;99.90;;;;;;5056200;28;20099;-82
2022/08/01 09:49:36;;;;;;;3.03;1.00;;;19.20;99.90;;;;;;5056324;28;20041;-83
2022/08/01 09:52:20;;;;;;;3.33;1.35;;;19.20;99.90;;;;;;5058669;28;20044;-83
2022/08/01 09:54:59;;;;;;;2.33;0.80;;;19.20;99.90;;;;;;5025787;28;20241;-84
2022/08/01 09:57:26;;;;;;;3.30;0.60;;;19.30;99.90;;;;;;5050124;28;20033;-84
2022/08/01 09:59:54;;;;;;;3.15;0.80;;;19.30;99.90;;;;;;5052462;28;20041;-84
2022/08/01 10:02:27;;;;;;;4.30;0.88;;;19.30;99.90;;;;;;5056626;28;20045;-83
2022/08/01 10:04:56;;;;;;;2.67;0.68;;;19.40;99.90;;;;;;5057188;28;20064;-84
2022/08/01 10:07:22;;;;;;;4.85;0.90;;;19.30;99.90;;;;;;5036299;28;20049;-84
2022/08/01 10:09:48;;;;;;;1.83;0.75;;;19.50;99.90;;;;;;5056817;28;20479;-85
2022/08/01 10:12:24;;;;;;;1.95;0.60;;;19.40;99.90;;;;;;5052519;28;20036;-84
2022/08/01 10:14:55;;;;;;;5.37;0.77;;;19.60;99.90;;;;;;5051326;28;20072;-81
2022/08/01 10:17:24;;;;;;;2.28;1.13;;;19.60;99.90;;;;;;5054817;28;20048;-84
2022/08/01 10:19:54;;;;;;;5.97;0.70;;;19.60;99.90;;;;;;5051042;28;20115;-85
2022/08/01 10:22:30;;;;;;;2.92;0.93;;;19.50;99.90;;;;;;5036810;28;20171;-85
2022/08/01 10:24:59;;;;;;;3.63;0.90;;;19.60;99.90;;;;;;5052182;28;20094;-87
2022/08/01 10:27:25;;;;;;;3.67;0.60;;;19.60;99.90;;;;;;5052170;28;20057;-85
2022/08/01 10:30:03;;;;;;;2.95;1.50;;;19.70;99.90;;;;;;5052671;28;20045;-86
2022/08/01 10:32:37;;;;;;;3.92;0.60;;;19.70;99.90;;;;;;5033472;28;20049;-85
2022/08/01 10:35:09;;;;;;;4.68;0.93;;;19.80;99.90;;;;;;5043998;28;20040;-85
2022/08/01 10:37:37;;;;;;;4.35;0.80;;;19.80;99.90;;;;;;5052886;28;20045;-84
2022/08/01 10:40:04;;;;;;;2.00;0.60;;;19.90;99.90;;;;;;5049187;28;20159;-85
2022/08/01 10:42:31;;;;;;;2.95;0.90;;;20.00;99.90;;;;;;5055923;28;20037;-84
2022/08/01 10:45:00;;;;;;;5.20;0.95;;;20.10;99.90;;;;;;5053923;28;20032;-85
2022/08/01 10:47:37;;;;;;;4.60;0.88;;;20.00;99.90;;;;;;5031349;28;20041;-85
2022/08/01 10:50:12;;;;;;;7.97;0.70;;;20.00;99.90;;;;;;5047341;28;20056;-86
2022/08/01 10:52:41;;;;;;;7.07;0.77;;;20.00;99.90;;;;;;5054118;28;20037;-85
2022/08/01 10:55:11;;;;;;;3.38;1.02;;;20.00;99.90;;;;;;5047487;28;20033;-84
2022/08/01 10:57:53;;;;;;;2.95;0.80;;;20.10;99.90;;;;;;5038473;28;20179;-86
2022/08/01 11:00:25;;;;;;;4.13;0.70;;;20.20;99.90;;;;;;5033602;28;20105;-84
2022/08/01 11:03:01;;;;;;;3.63;0.85;;;20.30;99.90;;;;;;5037019;28;20052;-85
2022/08/01 11:05:30;;;;;;;5.65;0.93;;;20.20;99.90;;;;;;5047135;28;20045;-85
2022/08/01 11:07:58;;;;;;;3.08;0.60;;;20.30;99.90;;;;;;5054694;28;20040;-84
2022/08/01 11:10:51;;;;;;;2.80;0.77;;;20.20;99.90;;;;;;5048616;28;20459;-85
2022/08/01 11:13:57;;;;;;;3.92;0.68;;;20.30;99.90;;;;;;5051188;28;20132;-85
2022/08/01 11:16:35;;;;;;;2.83;0.60;;;20.30;99.90;;;;;;5055309;28;20048;-85
2022/08/01 11:19:03;;;;;;;2.83;0.60;;;20.40;99.90;;;;;;5030242;28;20033;-88
2022/08/01 11:21:54;;;;;;;8.10;0.85;;;20.50;99.90;;;;;;5059560;28;20048;-85
2022/08/01 11:24:50;;;;;;;5.50;1.30;;;20.70;99.90;;;;;;5051649;28;20070;-86
2022/08/01 11:27:21;;;;;;;3.17;0.43;;;20.80;99.90;;;;;;5047330;28;20036;-84
2022/08/01 11:30:12;;;;;;;2.00;0.47;;;20.90;99.90;;;;;;5035229;28;20100;-84
2022/08/01 11:32:52;;;;;;;2.08;0.32;;;21.00;99.90;;;;;;5064185;28;20037;-84
2022/08/01 11:35:26;;;;;;;1.23;0.40;;;21.00;99.90;;;;;;5047547;28;20062;-85
2022/08/01 11:37:56;;;;;;;2.83;0.80;;;21.00;99.90;;;;;;5056983;28;20114;-84
2022/08/01 11:40:27;;;;;;;3.97;0.52;;;21.00;99.90;;;;;;5034426;28;20048;-85
2022/08/01 11:43:12;;;;;;;3.92;1.25;;;21.10;99.90;;;;;;5053946;28;20621;-85
2022/08/01 11:45:54;;;;;;;3.22;0.70;;;21.00;99.90;;;;;;5053736;28;20063;-85
2022/08/01 11:48:24;;;;;;;2.72;0.50;;;21.10;99.90;;;;;;5038240;28;20053;-84
2022/08/01 11:50:51;;;;;;;1.65;0.40;;;21.10;99.90;;;;;;5052445;28;20048;-85
2022/08/01 11:53:20;;;;;;;2.53;0.70;;;21.10;99.90;;;;;;5032789;28;20060;-85
2022/08/01 11:55:51;;;;;;;2.10;0.52;;;21.00;99.90;;;;;;5054379;28;20124;-85
2022/08/01 11:58:26;;;;;;;3.70;0.50;;;21.00;99.90;;;;;;5052435;28;20033;-86
2022/08/01 12:00:58;;;;;;;1.42;0.60;;;21.10;99.90;;;;;;5052426;28;20044;-84
2022/08/01 12:03:35;;;;;;;2.33;0.50;;;21.10;99.90;;;;;;5049455;28;20116;-83
2022/08/01 12:06:01;;;;;;;1.63;0.50;;;21.20;99.90;;;;;;5031101;28;20103;-85
2022/08/01 12:08:34;;;;;;;3.50;0.60;;;21.20;99.90;;;;;;5053743;28;20044;-85
2022/08/01 12:11:01;;;;;;;3.63;0.70;;;21.30;99.90;;;;;;5065973;28;20083;-84
2022/08/01 12:13:38;;;;;;;3.05;0.47;;;21.30;99.90;;;;;;5037503;28;20037;-84
2022/08/01 12:16:11;;;;;;;3.53;0.90;;;21.30;99.90;;;;;;5035531;28;20062;-84
2022/08/01 12:18:43;;;;;;;1.77;0.60;;;21.30;99.90;;;;;;5050203;28;20052;-84
2022/08/01 12:21:30;;;;;;;3.72;0.95;;;21.20;99.90;;;;;;5052163;28;20037;-85
2022/08/01 12:24:22;;;;;;;1.65;0.65;;;21.30;99.90;;;;;;5044679;28;20541;-84
2022/08/01 12:26:51;;;;;;;2.63;0.57;;;21.40;99.90;;;;;;5028196;28;20028;-82
2022/08/01 12:29:36;;;;;;;5.68;0.60;;;21.50;99.90;;;;;;5047776;28;20037;-84
2022/08/01 12:32:39;;;;;;;1.70;0.70;;;21.50;99.90;;;;;;5062513;28;20045;-84
2022/08/01 12:35:22;;;;;;;5.63;0.93;;;21.50;99.90;;;;;;5050214;28;20102;-84
2022/08/01 12:37:57;;;;;;;3.13;0.63;;;21.50;99.90;;;;;;5044580;28;20666;-84
2022/08/01 12:40:30;;;;;;;7.43;0.77;;;21.50;99.90;;;;;;5034196;28;20534;-85
2022/08/01 12:43:07;;;;;;;2.35;0.60;;;21.50;99.90;;;;;;5032587;28;20045;-84
2022/08/01 12:45:36;;;;;;;5.00;0.80;;;21.60;99.90;;;;;;5032118;28;20045;-84
2022/08/01 12:48:14;;;;;;;1.15;0.30;;;21.60;99.90;;;;;;5047243;28;20107;-85
2022/08/01 12:50:49;;;;;;;3.15;0.93;;;21.70;99.90;;;;;;5035372;28;20096;-84
2022/08/01 12:53:22;;;;;;;1.65;0.47;;;21.70;99.90;;;;;;5051163;28;20072;-85
2022/08/01 12:55:54;;;;;;;1.55;0.60;;;21.80;99.90;;;;;;5045126;28;20510;-84
2022/08/01 12:58:36;;;;;;;2.75;0.55;;;21.80;99.90;;;;;;5057263;28;20037;-84
2022/08/01 13:01:13;;;;;;;4.10;0.60;;;21.80;99.90;;;;;;5054119;28;20372;-84
2022/08/01 13:04:28;;;;;;;2.28;0.50;;;21.80;99.90;;;;;;5040154;28;20163;-85
2022/08/01 13:06:56;;;;;;;4.53;0.68;;;21.90;99.90;;;;;;5036393;28;20053;-84